sensor_id;sensor_type;location;lat;lon;timestamp;pressure;altitude;pressure_sealevel;temperature
3076;BMP180;1511;51.326;12.344;2023-08-08T00:00:49;99940.00;;;15.40
3076;BMP180;1511;51.326;12.344;2023-08-08T00:03:15;99937.00;;;15.60
3076;BMP180;1511;51.326;12.344;2023-08-08T00:05:43;99930.00;;;15.30
3076;BMP180;1511;51.326;12.344;2023-08-08T00:08:09;99938.00;;;15.60
3076;BMP180;1511;51.326;12.344;2023-08-08T00:10:37;99938.00;;;15.50
3076;BMP180;1511;51.326;12.344;2023-08-08T00:13:05;99939.00;;;15.60
3076;BMP180;1511;51.326;12.344;2023-08-08T00:15:30;99936.00;;;15.50
3076;BMP180;1511;51.326;12.344;2023-08-08T00:17:56;99929.00;;;15.40
3076;BMP180;1511;51.326;12.344;2023-08-08T00:20:24;99928.00;;;15.60
3076;BMP180;1511;51.326;12.344;2023-08-08T00:22:50;99924.00;;;15.30
3076;BMP180;1511;51.326;12.344;2023-08-08T00:25:18;99929.00;;;15.30
3076;BMP180;1511;51.326;12.344;2023-08-08T00:27:44;99923.00;;;15.60
3076;BMP180;1511;51.326;12.344;2023-08-08T00:30:13;99925.00;;;15.70
3076;BMP180;1511;51.326;12.344;2023-08-08T00:32:39;99929.00;;;15.70
3076;BMP180;1511;51.326;12.344;2023-08-08T00:35:08;99926.00;;;15.90
3076;BMP180;1511;51.326;12.344;2023-08-08T00:37:34;99927.00;;;15.80
3076;BMP180;1511;51.326;12.344;2023-08-08T00:40:02;99935.00;;;15.70
3076;BMP180;1511;51.326;12.344;2023-08-08T00:42:31;99928.00;;;15.80
3076;BMP180;1511;51.326;12.344;2023-08-08T00:44:56;99931.00;;;15.40
3076;BMP180;1511;51.326;12.344;2023-08-08T00:47:33;99924.00;;;15.60
3076;BMP180;1511;51.326;12.344;2023-08-08T00:50:03;99925.00;;;15.50
3076;BMP180;1511;51.326;12.344;2023-08-08T00:52:30;99923.00;;;15.50
3076;BMP180;1511;51.326;12.344;2023-08-08T00:54:56;99925.00;;;15.30
3076;BMP180;1511;51.326;12.344;2023-08-08T00:57:22;99932.00;;;15.60
3076;BMP180;1511;51.326;12.344;2023-08-08T00:59:48;99927.00;;;15.40
3076;BMP180;1511;51.326;12.344;2023-08-08T01:02:16;99928.00;;;15.80
3076;BMP180;1511;51.326;12.344;2023-08-08T01:04:42;99917.00;;;15.40
3076;BMP180;1511;51.326;12.344;2023-08-08T01:07:36;99922.00;;;15.60
3076;BMP180;1511;51.326;12.344;2023-08-08T01:10:14;99911.00;;;15.40
3076;BMP180;1511;51.326;12.344;2023-08-08T01:12:52;99913.00;;;15.60
3076;BMP180;1511;51.326;12.344;2023-08-08T01:15:21;99903.00;;;15.80
3076;BMP180;1511;51.326;12.344;2023-08-08T01:17:48;99910.00;;;15.70
3076;BMP180;1511;51.326;12.344;2023-08-08T01:20:14;99900.00;;;15.70
3076;BMP180;1511;51.326;12.344;2023-08-08T01:23:23;99897.00;;;15.70
3076;BMP180;1511;51.326;12.344;2023-08-08T01:25:52;99902.00;;;15.50
3076;BMP180;1511;51.326;12.344;2023-08-08T01:28:22;99896.00;;;15.50
3076;BMP180;1511;51.326;12.344;2023-08-08T01:30:48;99897.00;;;15.40
3076;BMP180;1511;51.326;12.344;2023-08-08T01:33:14;99897.00;;;15.00
3076;BMP180;1511;51.326;12.344;2023-08-08T01:35:47;99903.00;;;15.00
3076;BMP180;1511;51.326;12.344;2023-08-08T01:38:30;99900.00;;;15.20
3076;BMP180;1511;51.326;12.344;2023-08-08T01:41:00;99903.00;;;15.50
3076;BMP180;1511;51.326;12.344;2023-08-08T01:43:30;99904.00;;;15.30
3076;BMP180;1511;51.326;12.344;2023-08-08T01:45:59;99905.00;;;15.50
3076;BMP180;1511;51.326;12.344;2023-08-08T01:48:28;99905.00;;;15.10
3076;BMP180;1511;51.326;12.344;2023-08-08T01:50:56;99901.00;;;15.10
3076;BMP180;1511;51.326;12.344;2023-08-08T01:53:27;99891.00;;;15.10
3076;BMP180;1511;51.326;12.344;2023-08-08T01:55:53;99898.00;;;15.20
3076;BMP180;1511;51.326;12.344;2023-08-08T01:58:23;99896.00;;;15.00
3076;BMP180;1511;51.326;12.344;2023-08-08T02:00:49;99893.00;;;15.20
3076;BMP180;1511;51.326;12.344;2023-08-08T02:03:14;99897.00;;;15.20
3076;BMP180;1511;51.326;12.344;2023-08-08T02:05:42;99899.00;;;15.20
3076;BMP180;1511;51.326;12.344;2023-08-08T02:08:10;99888.00;;;15.20
3076;BMP180;1511;51.326;12.344;2023-08-08T02:10:38;99886.00;;;15.40
3076;BMP180;1511;51.326;12.344;2023-08-08T02:13:06;99883.00;;;15.40
3076;BMP180;1511;51.326;12.344;2023-08-08T02:15:36;99873.00;;;15.40
3076;BMP180;1511;51.326;12.344;2023-08-08T02:18:02;99875.00;;;15.20
3076;BMP180;1511;51.326;12.344;2023-08-08T02:20:29;99864.00;;;15.20
3076;BMP180;1511;51.326;12.344;2023-08-08T02:22:55;99872.00;;;15.40
3076;BMP180;1511;51.326;12.344;2023-08-08T02:25:23;99869.00;;;15.30
3076;BMP180;1511;51.326;12.344;2023-08-08T02:27:49;99862.00;;;15.60
3076;BMP180;1511;51.326;12.344;2023-08-08T02:30:15;99871.00;;;15.40
3076;BMP180;1511;51.326;12.344;2023-08-08T02:32:40;99873.00;;;15.30
3076;BMP180;1511;51.326;12.344;2023-08-08T02:35:07;99866.00;;;15.40
3076;BMP180;1511;51.326;12.344;2023-08-08T02:37:32;99877.00;;;15.20
3076;BMP180;1511;51.326;12.344;2023-08-08T02:40:00;99873.00;;;15.30
3076;BMP180;1511;51.326;12.344;2023-08-08T02:42:26;99869.00;;;15.20
3076;BMP180;1511;51.326;12.344;2023-08-08T02:44:54;99861.00;;;15.40
3076;BMP180;1511;51.326;12.344;2023-08-08T02:47:22;99854.00;;;15.40
3076;BMP180;1511;51.326;12.344;2023-08-08T02:49:49;99862.00;;;15.20
3076;BMP180;1511;51.326;12.344;2023-08-08T02:52:17;99870.00;;;15.10
3076;BMP180;1511;51.326;12.344;2023-08-08T02:54:43;99868.00;;;15.30
3076;BMP180;1511;51.326;12.344;2023-08-08T02:57:11;99867.00;;;15.20
3076;BMP180;1511;51.326;12.344;2023-08-08T02:59:37;99871.00;;;15.20
3076;BMP180;1511;51.326;12.344;2023-08-08T03:02:04;99866.00;;;14.80
3076;BMP180;1511;51.326;12.344;2023-08-08T03:04:32;99868.00;;;14.80
3076;BMP180;1511;51.326;12.344;2023-08-08T03:07:03;99867.00;;;15.00
3076;BMP180;1511;51.326;12.344;2023-08-08T03:09:31;99865.00;;;15.10
3076;BMP180;1511;51.326;12.344;2023-08-08T03:12:02;99866.00;;;15.10
3076;BMP180;1511;51.326;12.344;2023-08-08T03:14:30;99871.00;;;14.80
3076;BMP180;1511;51.326;12.344;2023-08-08T03:16:59;99868.00;;;15.00
3076;BMP180;1511;51.326;12.344;2023-08-08T03:19:29;99879.00;;;15.00
3076;BMP180;1511;51.326;12.344;2023-08-08T03:21:57;99874.00;;;15.10
3076;BMP180;1511;51.326;12.344;2023-08-08T03:24:25;99884.00;;;15.10
3076;BMP180;1511;51.326;12.344;2023-08-08T03:26:53;99876.00;;;15.00
3076;BMP180;1511;51.326;12.344;2023-08-08T03:29:20;99871.00;;;15.10
3076;BMP180;1511;51.326;12.344;2023-08-08T03:31:48;99872.00;;;15.10
3076;BMP180;1511;51.326;12.344;2023-08-08T03:34:17;99866.00;;;15.10
3076;BMP180;1511;51.326;12.344;2023-08-08T03:36:43;99865.00;;;14.80
3076;BMP180;1511;51.326;12.344;2023-08-08T03:39:11;99870.00;;;15.00
3076;BMP180;1511;51.326;12.344;2023-08-08T03:41:37;99872.00;;;15.10
3076;BMP180;1511;51.326;12.344;2023-08-08T03:44:05;99865.00;;;15.10
3076;BMP180;1511;51.326;12.344;2023-08-08T03:46:31;99873.00;;;15.20
3076;BMP180;1511;51.326;12.344;2023-08-08T03:48:59;99876.00;;;14.80
3076;BMP180;1511;51.326;12.344;2023-08-08T03:51:25;99877.00;;;15.00
3076;BMP180;1511;51.326;12.344;2023-08-08T03:53:50;99874.00;;;15.20
3076;BMP180;1511;51.326;12.344;2023-08-08T03:56:16;99871.00;;;15.00
3076;BMP180;1511;51.326;12.344;2023-08-08T03:58:42;99877.00;;;15.20
3076;BMP180;1511;51.326;12.344;2023-08-08T04:01:10;99866.00;;;14.90
3076;BMP180;1511;51.326;12.344;2023-08-08T04:03:36;99868.00;;;15.10
3076;BMP180;1511;51.326;12.344;2023-08-08T04:06:03;99868.00;;;14.80
3076;BMP180;1511;51.326;12.344;2023-08-08T04:08:31;99860.00;;;14.90
3076;BMP180;1511;51.326;12.344;2023-08-08T04:10:58;99867.00;;;14.70
3076;BMP180;1511;51.326;12.344;2023-08-08T04:13:23;99855.00;;;14.60
3076;BMP180;1511;51.326;12.344;2023-08-08T04:15:51;99861.00;;;15.00
3076;BMP180;1511;51.326;12.344;2023-08-08T04:18:18;99858.00;;;14.90
3076;BMP180;1511;51.326;12.344;2023-08-08T04:20:46;99853.00;;;14.70
3076;BMP180;1511;51.326;12.344;2023-08-08T04:23:13;99855.00;;;14.90
3076;BMP180;1511;51.326;12.344;2023-08-08T04:25:39;99856.00;;;15.10
3076;BMP180;1511;51.326;12.344;2023-08-08T04:28:05;99854.00;;;15.10
3076;BMP180;1511;51.326;12.344;2023-08-08T04:30:31;99854.00;;;15.20
3076;BMP180;1511;51.326;12.344;2023-08-08T04:32:56;99849.00;;;15.30
3076;BMP180;1511;51.326;12.344;2023-08-08T04:35:25;99846.00;;;15.20
3076;BMP180;1511;51.326;12.344;2023-08-08T04:37:53;99853.00;;;15.00
3076;BMP180;1511;51.326;12.344;2023-08-08T04:40:18;99851.00;;;15.20
3076;BMP180;1511;51.326;12.344;2023-08-08T04:42:46;99853.00;;;15.00
3076;BMP180;1511;51.326;12.344;2023-08-08T04:45:12;99844.00;;;14.80
3076;BMP180;1511;51.326;12.344;2023-08-08T04:47:38;99854.00;;;15.00
3076;BMP180;1511;51.326;12.344;2023-08-08T04:50:04;99846.00;;;15.30
3076;BMP180;1511;51.326;12.344;2023-08-08T04:52:31;99854.00;;;15.10
3076;BMP180;1511;51.326;12.344;2023-08-08T04:54:57;99855.00;;;15.30
3076;BMP180;1511;51.326;12.344;2023-08-08T04:57:27;99854.00;;;15.20
3076;BMP180;1511;51.326;12.344;2023-08-08T04:59:56;99853.00;;;15.20
3076;BMP180;1511;51.326;12.344;2023-08-08T05:02:22;99855.00;;;14.90
3076;BMP180;1511;51.326;12.344;2023-08-08T05:04:48;99859.00;;;14.90
3076;BMP180;1511;51.326;12.344;2023-08-08T05:07:14;99851.00;;;14.80
3076;BMP180;1511;51.326;12.344;2023-08-08T05:09:39;99859.00;;;14.90
3076;BMP180;1511;51.326;12.344;2023-08-08T05:12:06;99857.00;;;15.30
3076;BMP180;1511;51.326;12.344;2023-08-08T05:14:32;99858.00;;;15.40
3076;BMP180;1511;51.326;12.344;2023-08-08T05:16:57;99846.00;;;15.50
3076;BMP180;1511;51.326;12.344;2023-08-08T05:19:23;99856.00;;;15.60
3076;BMP180;1511;51.326;12.344;2023-08-08T05:21:51;99850.00;;;15.80
3076;BMP180;1511;51.326;12.344;2023-08-08T05:24:16;99845.00;;;15.80
3076;BMP180;1511;51.326;12.344;2023-08-08T05:26:45;99851.00;;;15.70
3076;BMP180;1511;51.326;12.344;2023-08-08T05:29:13;99856.00;;;15.80
3076;BMP180;1511;51.326;12.344;2023-08-08T05:31:38;99853.00;;;15.70
3076;BMP180;1511;51.326;12.344;2023-08-08T05:34:07;99853.00;;;15.80
3076;BMP180;1511;51.326;12.344;2023-08-08T05:36:32;99849.00;;;15.70
3076;BMP180;1511;51.326;12.344;2023-08-08T05:38:58;99838.00;;;15.80
3076;BMP180;1511;51.326;12.344;2023-08-08T05:41:24;99845.00;;;15.80
3076;BMP180;1511;51.326;12.344;2023-08-08T05:43:50;99847.00;;;16.00
3076;BMP180;1511;51.326;12.344;2023-08-08T05:46:16;99846.00;;;16.10
3076;BMP180;1511;51.326;12.344;2023-08-08T05:48:42;99839.00;;;16.20
3076;BMP180;1511;51.326;12.344;2023-08-08T05:51:08;99838.00;;;16.10
3076;BMP180;1511;51.326;12.344;2023-08-08T05:53:33;99836.00;;;16.10
3076;BMP180;1511;51.326;12.344;2023-08-08T05:55:59;99835.00;;;15.90
3076;BMP180;1511;51.326;12.344;2023-08-08T05:58:25;99848.00;;;16.10
3076;BMP180;1511;51.326;12.344;2023-08-08T06:00:54;99848.00;;;16.10
3076;BMP180;1511;51.326;12.344;2023-08-08T06:03:20;99850.00;;;16.20
3076;BMP180;1511;51.326;12.344;2023-08-08T06:05:45;99857.00;;;16.10
3076;BMP180;1511;51.326;12.344;2023-08-08T06:08:11;99861.00;;;16.30
3076;BMP180;1511;51.326;12.344;2023-08-08T06:10:39;99860.00;;;16.20
3076;BMP180;1511;51.326;12.344;2023-08-08T06:13:04;99864.00;;;16.30
3076;BMP180;1511;51.326;12.344;2023-08-08T06:15:30;99865.00;;;16.10
3076;BMP180;1511;51.326;12.344;2023-08-08T06:17:57;99861.00;;;15.90
3076;BMP180;1511;51.326;12.344;2023-08-08T06:20:25;99865.00;;;16.10
3076;BMP180;1511;51.326;12.344;2023-08-08T06:22:52;99857.00;;;16.10
3076;BMP180;1511;51.326;12.344;2023-08-08T06:25:17;99855.00;;;15.90
3076;BMP180;1511;51.326;12.344;2023-08-08T06:27:43;99860.00;;;15.90
3076;BMP180;1511;51.326;12.344;2023-08-08T06:30:11;99859.00;;;15.90
3076;BMP180;1511;51.326;12.344;2023-08-08T06:32:40;99856.00;;;16.20
3076;BMP180;1511;51.326;12.344;2023-08-08T06:35:09;99848.00;;;16.30
3076;BMP180;1511;51.326;12.344;2023-08-08T06:37:39;99840.00;;;16.20
3076;BMP180;1511;51.326;12.344;2023-08-08T06:40:09;99844.00;;;16.10
3076;BMP180;1511;51.326;12.344;2023-08-08T06:42:36;99842.00;;;16.20
3076;BMP180;1511;51.326;12.344;2023-08-08T06:45:02;99847.00;;;16.30
3076;BMP180;1511;51.326;12.344;2023-08-08T06:47:35;99851.00;;;16.40
3076;BMP180;1511;51.326;12.344;2023-08-08T06:50:01;99858.00;;;16.30
3076;BMP180;1511;51.326;12.344;2023-08-08T06:52:27;99861.00;;;16.30
3076;BMP180;1511;51.326;12.344;2023-08-08T06:54:52;99857.00;;;16.40
3076;BMP180;1511;51.326;12.344;2023-08-08T06:57:18;99862.00;;;16.30
3076;BMP180;1511;51.326;12.344;2023-08-08T06:59:44;99860.00;;;16.50
3076;BMP180;1511;51.326;12.344;2023-08-08T07:02:09;99862.00;;;16.70
3076;BMP180;1511;51.326;12.344;2023-08-08T07:04:35;99867.00;;;16.70
3076;BMP180;1511;51.326;12.344;2023-08-08T07:07:01;99861.00;;;17.00
3076;BMP180;1511;51.326;12.344;2023-08-08T07:09:29;99854.00;;;16.90
3076;BMP180;1511;51.326;12.344;2023-08-08T07:11:55;99866.00;;;17.00
3076;BMP180;1511;51.326;12.344;2023-08-08T07:14:20;99857.00;;;17.20
3076;BMP180;1511;51.326;12.344;2023-08-08T07:16:46;99867.00;;;17.30
3076;BMP180;1511;51.326;12.344;2023-08-08T07:19:13;99862.00;;;17.00
3076;BMP180;1511;51.326;12.344;2023-08-08T07:21:46;99856.00;;;16.80
3076;BMP180;1511;51.326;12.344;2023-08-08T07:24:15;99860.00;;;16.70
3076;BMP180;1511;51.326;12.344;2023-08-08T07:26:40;99858.00;;;16.80
3076;BMP180;1511;51.326;12.344;2023-08-08T07:29:06;99857.00;;;16.80
3076;BMP180;1511;51.326;12.344;2023-08-08T07:31:35;99866.00;;;16.90
3076;BMP180;1511;51.326;12.344;2023-08-08T07:34:03;99869.00;;;16.90
3076;BMP180;1511;51.326;12.344;2023-08-08T07:36:31;99866.00;;;16.90
3076;BMP180;1511;51.326;12.344;2023-08-08T07:38:57;99859.00;;;16.80
3076;BMP180;1511;51.326;12.344;2023-08-08T07:41:26;99856.00;;;17.00
3076;BMP180;1511;51.326;12.344;2023-08-08T07:43:52;99862.00;;;17.10
3076;BMP180;1511;51.326;12.344;2023-08-08T07:46:23;99865.00;;;17.10
3076;BMP180;1511;51.326;12.344;2023-08-08T07:48:49;99853.00;;;16.80
3076;BMP180;1511;51.326;12.344;2023-08-08T07:51:15;99849.00;;;16.90
3076;BMP180;1511;51.326;12.344;2023-08-08T07:53:40;99854.00;;;16.70
3076;BMP180;1511;51.326;12.344;2023-08-08T07:56:08;99859.00;;;16.60
3076;BMP180;1511;51.326;12.344;2023-08-08T07:58:34;99857.00;;;16.50
3076;BMP180;1511;51.326;12.344;2023-08-08T08:01:00;99866.00;;;16.40
3076;BMP180;1511;51.326;12.344;2023-08-08T08:03:28;99863.00;;;16.30
3076;BMP180;1511;51.326;12.344;2023-08-08T08:05:54;99856.00;;;16.80
3076;BMP180;1511;51.326;12.344;2023-08-08T08:08:20;99867.00;;;17.90
3076;BMP180;1511;51.326;12.344;2023-08-08T08:10:49;99858.00;;;18.20
3076;BMP180;1511;51.326;12.344;2023-08-08T08:13:16;99867.00;;;18.40
3076;BMP180;1511;51.326;12.344;2023-08-08T08:15:43;99868.00;;;18.70
3076;BMP180;1511;51.326;12.344;2023-08-08T08:18:09;99876.00;;;18.90
3076;BMP180;1511;51.326;12.344;2023-08-08T08:20:36;99867.00;;;18.80
3076;BMP180;1511;51.326;12.344;2023-08-08T08:23:02;99855.00;;;18.80
3076;BMP180;1511;51.326;12.344;2023-08-08T08:25:30;99875.00;;;18.70
3076;BMP180;1511;51.326;12.344;2023-08-08T08:27:59;99862.00;;;18.90
3076;BMP180;1511;51.326;12.344;2023-08-08T08:30:25;99868.00;;;18.90
3076;BMP180;1511;51.326;12.344;2023-08-08T08:32:52;99880.00;;;18.90
3076;BMP180;1511;51.326;12.344;2023-08-08T08:35:18;99872.00;;;18.90
3076;BMP180;1511;51.326;12.344;2023-08-08T08:37:44;99875.00;;;19.00
3076;BMP180;1511;51.326;12.344;2023-08-08T08:40:11;99877.00;;;19.10
3076;BMP180;1511;51.326;12.344;2023-08-08T08:42:38;99876.00;;;19.10
3076;BMP180;1511;51.326;12.344;2023-08-08T08:45:06;99879.00;;;19.30
3076;BMP180;1511;51.326;12.344;2023-08-08T08:47:34;99875.00;;;19.00
3076;BMP180;1511;51.326;12.344;2023-08-08T08:50:01;99881.00;;;19.10
3076;BMP180;1511;51.326;12.344;2023-08-08T08:52:29;99867.00;;;18.90
3076;BMP180;1511;51.326;12.344;2023-08-08T08:54:55;99868.00;;;19.00
3076;BMP180;1511;51.326;12.344;2023-08-08T08:57:22;99868.00;;;19.30
3076;BMP180;1511;51.326;12.344;2023-08-08T08:59:54;99874.00;;;19.30
3076;BMP180;1511;51.326;12.344;2023-08-08T09:02:21;99870.00;;;19.20
3076;BMP180;1511;51.326;12.344;2023-08-08T09:04:48;99870.00;;;18.60
3076;BMP180;1511;51.326;12.344;2023-08-08T09:07:16;99864.00;;;18.00
3076;BMP180;1511;51.326;12.344;2023-08-08T09:09:44;99866.00;;;17.80
3076;BMP180;1511;51.326;12.344;2023-08-08T09:12:10;99866.00;;;17.80
3076;BMP180;1511;51.326;12.344;2023-08-08T09:14:41;99868.00;;;18.40
3076;BMP180;1511;51.326;12.344;2023-08-08T09:17:14;99864.00;;;18.70
3076;BMP180;1511;51.326;12.344;2023-08-08T09:19:46;99872.00;;;19.00
3076;BMP180;1511;51.326;12.344;2023-08-08T09:22:15;99868.00;;;19.10
3076;BMP180;1511;51.326;12.344;2023-08-08T09:24:43;99854.00;;;19.00
3076;BMP180;1511;51.326;12.344;2023-08-08T09:27:12;99859.00;;;18.60
3076;BMP180;1511;51.326;12.344;2023-08-08T09:29:41;99861.00;;;18.90
3076;BMP180;1511;51.326;12.344;2023-08-08T09:32:10;99856.00;;;19.30
3076;BMP180;1511;51.326;12.344;2023-08-08T09:34:40;99850.00;;;19.30
3076;BMP180;1511;51.326;12.344;2023-08-08T09:37:06;99854.00;;;19.40
3076;BMP180;1511;51.326;12.344;2023-08-08T09:39:34;99857.00;;;19.30
3076;BMP180;1511;51.326;12.344;2023-08-08T09:42:02;99842.00;;;19.30
3076;BMP180;1511;51.326;12.344;2023-08-08T09:44:29;99845.00;;;19.40
3076;BMP180;1511;51.326;12.344;2023-08-08T09:46:59;99845.00;;;19.20
3076;BMP180;1511;51.326;12.344;2023-08-08T09:49:26;99840.00;;;19.60
3076;BMP180;1511;51.326;12.344;2023-08-08T09:51:53;99839.00;;;19.40
3076;BMP180;1511;51.326;12.344;2023-08-08T09:54:23;99838.00;;;19.50
3076;BMP180;1511;51.326;12.344;2023-08-08T09:56:51;99839.00;;;19.70
3076;BMP180;1511;51.326;12.344;2023-08-08T09:59:17;99837.00;;;19.70
3076;BMP180;1511;51.326;12.344;2023-08-08T10:01:46;99837.00;;;19.40
3076;BMP180;1511;51.326;12.344;2023-08-08T10:04:14;99833.00;;;19.90
3076;BMP180;1511;51.326;12.344;2023-08-08T10:06:43;99823.00;;;19.60
3076;BMP180;1511;51.326;12.344;2023-08-08T10:09:13;99822.00;;;19.70
3076;BMP180;1511;51.326;12.344;2023-08-08T10:11:40;99823.00;;;19.80
3076;BMP180;1511;51.326;12.344;2023-08-08T10:14:10;99822.00;;;19.80
3076;BMP180;1511;51.326;12.344;2023-08-08T10:16:37;99830.00;;;19.80
3076;BMP180;1511;51.326;12.344;2023-08-08T10:19:07;99820.00;;;19.80
3076;BMP180;1511;51.326;12.344;2023-08-08T10:21:41;99826.00;;;19.70
3076;BMP180;1511;51.326;12.344;2023-08-08T10:24:09;99835.00;;;19.40
3076;BMP180;1511;51.326;12.344;2023-08-08T10:27:01;99840.00;;;19.40
3076;BMP180;1511;51.326;12.344;2023-08-08T10:29:33;99826.00;;;19.30
3076;BMP180;1511;51.326;12.344;2023-08-08T10:32:04;99829.00;;;19.20
3076;BMP180;1511;51.326;12.344;2023-08-08T10:34:42;99827.00;;;19.20
3076;BMP180;1511;51.326;12.344;2023-08-08T10:37:15;99836.00;;;19.00
3076;BMP180;1511;51.326;12.344;2023-08-08T10:40:01;99828.00;;;19.00
3076;BMP180;1511;51.326;12.344;2023-08-08T10:42:40;99836.00;;;19.00
3076;BMP180;1511;51.326;12.344;2023-08-08T10:45:14;99838.00;;;19.10
3076;BMP180;1511;51.326;12.344;2023-08-08T10:47:41;99836.00;;;19.00
3076;BMP180;1511;51.326;12.344;2023-08-08T10:50:12;99838.00;;;18.80
3076;BMP180;1511;51.326;12.344;2023-08-08T10:55:31;99826.00;;;18.60
3076;BMP180;1511;51.326;12.344;2023-08-08T10:58:13;99830.00;;;18.40
3076;BMP180;1511;51.326;12.344;2023-08-08T11:00:41;99822.00;;;18.40
3076;BMP180;1511;51.326;12.344;2023-08-08T11:03:08;99817.00;;;18.60
3076;BMP180;1511;51.326;12.344;2023-08-08T11:05:37;99817.00;;;18.70
3076;BMP180;1511;51.326;12.344;2023-08-08T11:08:06;99805.00;;;18.80
3076;BMP180;1511;51.326;12.344;2023-08-08T11:10:38;99804.00;;;18.70
3076;BMP180;1511;51.326;12.344;2023-08-08T11:13:06;99801.00;;;18.70
3076;BMP180;1511;51.326;12.344;2023-08-08T11:15:34;99801.00;;;18.80
3076;BMP180;1511;51.326;12.344;2023-08-08T11:18:02;99788.00;;;18.90
3076;BMP180;1511;51.326;12.344;2023-08-08T11:20:34;99793.00;;;18.90
3076;BMP180;1511;51.326;12.344;2023-08-08T11:23:03;99780.00;;;19.00
3076;BMP180;1511;51.326;12.344;2023-08-08T11:25:36;99779.00;;;19.30
3076;BMP180;1511;51.326;12.344;2023-08-08T11:28:03;99773.00;;;19.00
3076;BMP180;1511;51.326;12.344;2023-08-08T11:30:34;99761.00;;;19.40
3076;BMP180;1511;51.326;12.344;2023-08-08T11:33:00;99765.00;;;19.70
3076;BMP180;1511;51.326;12.344;2023-08-08T11:35:26;99764.00;;;19.70
3076;BMP180;1511;51.326;12.344;2023-08-08T11:37:57;99760.00;;;19.80
3076;BMP180;1511;51.326;12.344;2023-08-08T11:40:27;99765.00;;;20.00
3076;BMP180;1511;51.326;12.344;2023-08-08T11:42:55;99763.00;;;20.20
3076;BMP180;1511;51.326;12.344;2023-08-08T11:45:24;99754.00;;;20.20
3076;BMP180;1511;51.326;12.344;2023-08-08T11:47:52;99758.00;;;20.20
3076;BMP180;1511;51.326;12.344;2023-08-08T11:50:23;99745.00;;;20.50
3076;BMP180;1511;51.326;12.344;2023-08-08T11:52:54;99753.00;;;20.40
3076;BMP180;1511;51.326;12.344;2023-08-08T11:55:20;99752.00;;;20.20
3076;BMP180;1511;51.326;12.344;2023-08-08T11:57:48;99749.00;;;20.40
3076;BMP180;1511;51.326;12.344;2023-08-08T12:00:15;99749.00;;;20.20
3076;BMP180;1511;51.326;12.344;2023-08-08T12:02:47;99742.00;;;20.30
3076;BMP180;1511;51.326;12.344;2023-08-08T12:05:14;99743.00;;;20.10
3076;BMP180;1511;51.326;12.344;2023-08-08T12:07:47;99740.00;;;19.90
3076;BMP180;1511;51.326;12.344;2023-08-08T12:10:22;99739.00;;;19.90
3076;BMP180;1511;51.326;12.344;2023-08-08T12:12:56;99737.00;;;19.90
3076;BMP180;1511;51.326;12.344;2023-08-08T12:15:27;99732.00;;;19.90
3076;BMP180;1511;51.326;12.344;2023-08-08T12:17:53;99727.00;;;19.90
3076;BMP180;1511;51.326;12.344;2023-08-08T12:20:19;99729.00;;;20.10
3076;BMP180;1511;51.326;12.344;2023-08-08T12:22:47;99723.00;;;20.30
3076;BMP180;1511;51.326;12.344;2023-08-08T12:25:15;99726.00;;;20.30
3076;BMP180;1511;51.326;12.344;2023-08-08T12:27:44;99725.00;;;20.20
3076;BMP180;1511;51.326;12.344;2023-08-08T12:30:10;99728.00;;;20.20
3076;BMP180;1511;51.326;12.344;2023-08-08T12:32:36;99726.00;;;20.50
3076;BMP180;1511;51.326;12.344;2023-08-08T12:35:02;99712.00;;;20.80
3076;BMP180;1511;51.326;12.344;2023-08-08T12:37:28;99715.00;;;20.90
3076;BMP180;1511;51.326;12.344;2023-08-08T12:39:56;99710.00;;;20.90
3076;BMP180;1511;51.326;12.344;2023-08-08T12:42:25;99718.00;;;20.80
3076;BMP180;1511;51.326;12.344;2023-08-08T12:44:50;99711.00;;;20.70
3076;BMP180;1511;51.326;12.344;2023-08-08T12:47:19;99717.00;;;20.70
3076;BMP180;1511;51.326;12.344;2023-08-08T12:49:48;99715.00;;;20.50
3076;BMP180;1511;51.326;12.344;2023-08-08T12:52:16;99704.00;;;20.70
3076;BMP180;1511;51.326;12.344;2023-08-08T12:54:43;99704.00;;;21.00
3076;BMP180;1511;51.326;12.344;2023-08-08T12:57:10;99702.00;;;21.30
3076;BMP180;1511;51.326;12.344;2023-08-08T12:59:39;99710.00;;;21.10
3076;BMP180;1511;51.326;12.344;2023-08-08T13:02:04;99707.00;;;21.00
3076;BMP180;1511;51.326;12.344;2023-08-08T13:04:32;99703.00;;;20.80
3076;BMP180;1511;51.326;12.344;2023-08-08T13:06:58;99713.00;;;20.80
3076;BMP180;1511;51.326;12.344;2023-08-08T13:09:26;99715.00;;;20.90
3076;BMP180;1511;51.326;12.344;2023-08-08T13:11:52;99714.00;;;20.80
3076;BMP180;1511;51.326;12.344;2023-08-08T13:14:18;99718.00;;;20.60
3076;BMP180;1511;51.326;12.344;2023-08-08T13:16:46;99716.00;;;20.50
3076;BMP180;1511;51.326;12.344;2023-08-08T13:19:13;99709.00;;;20.30
3076;BMP180;1511;51.326;12.344;2023-08-08T13:21:41;99711.00;;;20.40
3076;BMP180;1511;51.326;12.344;2023-08-08T13:24:07;99712.00;;;20.50
3076;BMP180;1511;51.326;12.344;2023-08-08T13:26:35;99699.00;;;20.20
3076;BMP180;1511;51.326;12.344;2023-08-08T13:29:01;99706.00;;;20.40
3076;BMP180;1511;51.326;12.344;2023-08-08T13:31:26;99694.00;;;20.40
3076;BMP180;1511;51.326;12.344;2023-08-08T13:33:52;99688.00;;;20.40
3076;BMP180;1511;51.326;12.344;2023-08-08T13:36:18;99692.00;;;20.20
3076;BMP180;1511;51.326;12.344;2023-08-08T13:38:44;99701.00;;;20.40
3076;BMP180;1511;51.326;12.344;2023-08-08T13:41:10;99703.00;;;20.30
3076;BMP180;1511;51.326;12.344;2023-08-08T13:43:35;99705.00;;;20.30
3076;BMP180;1511;51.326;12.344;2023-08-08T13:46:03;99698.00;;;20.20
3076;BMP180;1511;51.326;12.344;2023-08-08T13:48:33;99698.00;;;20.40
3076;BMP180;1511;51.326;12.344;2023-08-08T13:51:00;99706.00;;;20.40
3076;BMP180;1511;51.326;12.344;2023-08-08T13:53:26;99702.00;;;20.40
3076;BMP180;1511;51.326;12.344;2023-08-08T13:55:51;99707.00;;;20.50
3076;BMP180;1511;51.326;12.344;2023-08-08T13:58:17;99704.00;;;20.60
3076;BMP180;1511;51.326;12.344;2023-08-08T14:00:44;99698.00;;;20.50
3076;BMP180;1511;51.326;12.344;2023-08-08T14:03:10;99703.00;;;20.60
3076;BMP180;1511;51.326;12.344;2023-08-08T14:05:36;99708.00;;;20.60
3076;BMP180;1511;51.326;12.344;2023-08-08T14:08:05;99704.00;;;20.60
3076;BMP180;1511;51.326;12.344;2023-08-08T14:10:31;99710.00;;;20.60
3076;BMP180;1511;51.326;12.344;2023-08-08T14:12:57;99705.00;;;20.50
3076;BMP180;1511;51.326;12.344;2023-08-08T14:15:25;99718.00;;;20.50
3076;BMP180;1511;51.326;12.344;2023-08-08T14:17:51;99711.00;;;20.60
3076;BMP180;1511;51.326;12.344;2023-08-08T14:20:17;99731.00;;;20.50
3076;BMP180;1511;51.326;12.344;2023-08-08T14:22:45;99752.00;;;20.30
3076;BMP180;1511;51.326;12.344;2023-08-08T14:25:14;99760.00;;;19.90
3076;BMP180;1511;51.326;12.344;2023-08-08T14:27:40;99767.00;;;19.60